Time;durP1;ratioP1;P1;durP2;ratioP2;P2;SDS_P1;SDS_P2;PMS_P1;PMS_P2;Temp;Humidity;BMP_temperature;BMP_pressure;BME280_temperature;BME280_humidity;BME280_pressure;Samples;Min_cycle;Max_cycle;Signal;HPM_P1;HPM_P2
2021/12/07 00:00:44;;;;;;;;;;;19.40;59.90;;;23.60;34.87;94019.19;6063056;19;19929;-68
2021/12/07 00:02:45;;;;;;;;;;;19.40;59.90;;;23.61;34.97;94031.66;6059328;19;20365;-66
2021/12/07 00:04:47;;;;;;;;;;;19.40;59.90;;;23.62;34.62;94027.03;6060127;19;19930;-66
2021/12/07 00:06:48;;;;;;;;;;;19.40;59.80;;;23.62;34.77;94037.91;6074896;19;20060;-66
2021/12/07 00:08:54;;;;;;;;;;;19.40;59.80;;;23.62;35.02;94038.69;6083270;19;19974;-66
2021/12/07 00:10:55;;;;;;;;;;;19.40;59.70;;;23.61;34.85;94036.31;6077712;19;20032;-67
2021/12/07 00:12:56;;;;;;;;;;;19.40;59.70;;;23.62;35.08;94024.31;6072899;19;19926;-66
2021/12/07 00:15:01;;;;;;;;;;;19.40;59.70;;;23.62;34.88;94032.47;6069641;19;19918;-69
2021/12/07 00:17:03;;;;;;;;;;;19.40;59.70;;;23.62;35.11;94021.59;6075345;19;19918;-68
2021/12/07 00:19:04;;;;;;;;;;;19.40;59.60;;;23.62;34.66;94024.31;6080763;19;19963;-66
2021/12/07 00:21:07;;;;;;;;;;;19.40;59.60;;;23.62;34.65;94032.47;6073684;19;19930;-68
2021/12/07 00:23:09;;;;;;;;;;;19.40;59.60;;;23.62;34.73;94032.47;6068724;19;19919;-68
2021/12/07 00:25:10;;;;;;;;;;;19.40;59.60;;;23.60;35.10;94030.06;6076931;19;19923;-66
2021/12/07 00:27:11;;;;;;;;;;;19.40;59.50;;;23.61;34.68;94033.59;6069082;19;19978;-65
2021/12/07 00:29:13;;;;;;;;;;;19.40;59.50;;;23.60;34.89;94032.81;6054301;19;20515;-66
2021/12/07 00:31:23;;;;;;;;;;;19.40;59.50;;;23.61;35.10;94036.31;6081149;19;20357;-65
2021/12/07 00:35:34;;;;;;;;;;;19.40;59.50;;;23.61;34.88;94023.50;6026686;19;19922;-67
2021/12/07 00:37:36;;;;;;;;;;;19.40;59.60;;;23.60;34.62;94021.13;6062495;19;19976;-65
2021/12/07 00:39:37;;;;;;;;;;;19.40;59.60;;;23.60;34.59;94015.69;6070606;19;20800;-68
2021/12/07 00:41:39;;;;;;;;;;;19.40;59.50;;;23.62;34.78;94018.88;6042074;19;20360;-68
2021/12/07 00:43:40;;;;;;;;;;;19.40;59.50;;;23.61;35.02;94022.72;6028831;19;20005;-68
2021/12/07 00:45:45;;;;;;;;;;;19.40;59.50;;;23.61;34.74;94014.53;6041978;19;19915;-67
2021/12/07 00:47:51;;;;;;;;;;;19.40;59.60;;;23.62;35.09;94024.31;6065065;19;19933;-67
2021/12/07 00:49:52;;;;;;;;;;;19.50;59.70;;;23.62;34.67;94016.94;6054075;19;19932;-68
2021/12/07 00:51:53;;;;;;;;;;;19.40;59.70;;;23.62;34.72;94019.66;6044683;19;20518;-68
2021/12/07 00:53:54;;;;;;;;;;;19.50;59.90;;;23.62;34.81;94021.59;6054373;19;19975;-68
2021/12/07 00:55:57;;;;;;;;;;;19.50;59.90;;;23.62;35.02;94016.16;6049976;19;19929;-66
2021/12/07 00:58:00;;;;;;;;;;;19.40;60.60;;;23.62;34.72;94011.50;6061028;19;19930;-68
2021/12/07 01:00:06;;;;;;;;;;;19.40;59.90;;;23.62;34.86;94006.06;6079629;19;19941;-68
2021/12/07 01:02:07;;;;;;;;;;;19.50;60.00;;;23.61;34.63;94001.72;6040409;19;19991;-68
2021/12/07 01:04:08;;;;;;;;;;;19.40;59.80;;;23.63;34.94;94004.13;6051555;19;19915;-66
2021/12/07 01:06:44;;;;;;;;;;;19.40;59.80;;;23.63;34.81;94004.13;6058944;19;20498;-67
2021/12/07 01:24:48;;;;;;;;;;;19.50;60.00;;;23.62;35.02;93991.66;6060602;19;20972;-67
2021/12/07 01:26:50;;;;;;;;;;;19.50;59.90;;;23.64;34.96;93986.66;6062972;19;20332;-68
2021/12/07 01:28:51;;;;;;;;;;;19.50;59.90;;;23.64;34.80;93986.66;6062802;19;19915;-66
2021/12/07 01:59:45;;;;;;;;;;;19.50;60.00;;;23.64;35.07;94011.91;6048373;19;19993;-67
2021/12/07 02:01:46;;;;;;;;;;;19.50;59.90;;;23.64;34.76;94003.75;6060030;19;19919;-65
2021/12/07 02:03:47;;;;;;;;;;;19.50;59.80;;;23.64;34.90;94001.03;6048220;19;19970;-66
2021/12/07 02:05:48;;;;;;;;;;;19.50;59.90;;;23.65;35.18;93997.16;6053585;19;19926;-66
2021/12/07 02:07:49;;;;;;;;;;;19.50;59.80;;;23.64;34.89;93998.31;6069886;19;19923;-66
2021/12/07 02:09:54;;;;;;;;;;;19.50;59.80;;;23.64;34.62;94006.47;6071702;19;19917;-68
2021/12/07 02:12:00;;;;;;;;;;;19.50;59.80;;;23.65;34.97;94004.53;6081085;19;19942;-68
2021/12/07 02:16:01;;;;;;;;;;;19.50;59.80;;;23.63;35.17;93990.50;6072754;19;19929;-65
2021/12/07 02:18:02;;;;;;;;;;;19.50;59.80;;;23.62;34.98;93984.28;6081563;19;19919;-66
2021/12/07 02:20:04;;;;;;;;;;;19.50;59.80;;;23.63;35.24;93995.94;6073645;19;19914;-65
2021/12/07 02:22:05;;;;;;;;;;;19.50;59.80;;;23.63;34.79;93993.22;6072420;19;19915;-69
2021/12/07 02:24:12;;;;;;;;;;;19.50;59.80;;;23.63;34.74;93985.84;6077077;19;20528;-68
2021/12/07 02:26:14;;;;;;;;;;;19.50;59.80;;;23.62;34.88;93987.00;6076031;19;19914;-66
2021/12/07 02:28:16;;;;;;;;;;;19.50;59.80;;;23.64;34.72;93975.75;6078515;19;19935;-67
2021/12/07 02:30:20;;;;;;;;;;;19.50;59.80;;;23.64;34.72;93981.19;6062581;19;19950;-67
2021/12/07 02:32:21;;;;;;;;;;;19.50;59.90;;;23.64;34.76;93968.38;6060004;19;19945;-68
2021/12/07 02:34:23;;;;;;;;;;;19.50;59.90;;;23.64;34.85;93956.72;6063312;19;19914;-65
2021/12/07 02:36:25;;;;;;;;;;;19.50;59.90;;;23.64;34.76;93960.22;6072996;19;19923;-67
2021/12/07 02:38:27;;;;;;;;;;;19.50;59.90;;;23.64;34.89;93954.78;6059628;19;19996;-68
2021/12/07 02:40:28;;;;;;;;;;;19.50;59.90;;;23.65;34.80;93952.84;6059177;19;19915;-68
2021/12/07 02:42:28;;;;;;;;;;;19.50;59.90;;;23.66;34.81;93946.25;6064305;19;19910;-66
2021/12/07 02:44:30;;;;;;;;;;;19.50;60.00;;;23.65;35.07;93945.47;6075729;19;19926;-69
2021/12/07 02:46:31;;;;;;;;;;;19.50;60.00;;;23.65;34.79;93952.84;6072530;19;20258;-66
2021/12/07 02:48:32;;;;;;;;;;;19.50;60.00;;;23.65;35.13;93961.78;6081780;19;20526;-66
2021/12/07 02:50:35;;;;;;;;;;;19.50;60.00;;;23.65;35.16;93969.16;6069106;19;19914;-68
2021/12/07 02:52:37;;;;;;;;;;;19.50;60.00;;;23.66;34.87;93968.03;6066481;19;20360;-68
2021/12/07 02:54:44;;;;;;;;;;;19.50;60.00;;;23.65;34.71;93966.44;6080120;19;19951;-65
2021/12/07 02:56:51;;;;;;;;;;;19.50;60.00;;;23.65;34.88;93955.56;6062347;19;19972;-69
2021/12/07 02:58:57;;;;;;;;;;;19.50;60.00;;;23.65;34.88;93950.91;6067749;19;19922;-68
2021/12/07 03:01:05;;;;;;;;;;;19.50;60.70;;;23.65;34.81;93956.34;6039214;19;20553;-68
2021/12/07 03:03:11;;;;;;;;;;;19.50;60.00;;;23.66;35.21;93955.22;6030721;19;19981;-69
2021/12/07 03:05:38;;;;;;;;;;;19.50;59.90;;;23.66;35.01;93957.94;6029414;19;21316;-66
2021/12/07 03:26:10;;;;;;;;;;;19.50;60.00;;;23.65;35.00;93988.22;6043724;19;19918;-67
2021/12/07 03:28:14;;;;;;;;;;;19.50;60.00;;;23.65;35.16;93983.56;6075912;19;20001;-67
2021/12/07 03:30:15;;;;;;;;;;;19.50;60.00;;;23.66;35.15;93990.56;6059317;19;20468;-67
2021/12/07 03:32:17;;;;;;;;;;;19.50;60.00;;;23.66;34.85;93995.22;6058344;19;20485;-67
2021/12/07 03:34:19;;;;;;;;;;;19.50;60.00;;;23.65;34.96;93997.16;6077095;19;19990;-67
2021/12/07 03:36:20;;;;;;;;;;;19.50;60.00;;;23.65;34.83;93996.38;6072073;19;19923;-67
2021/12/07 03:38:22;;;;;;;;;;;19.50;59.90;;;23.66;35.00;94006.13;6066070;19;19919;-67
2021/12/07 03:40:23;;;;;;;;;;;19.50;60.00;;;23.66;35.21;94008.84;6079009;19;19906;-66
2021/12/07 03:42:24;;;;;;;;;;;19.50;60.00;;;23.66;34.91;94008.84;6061611;19;19918;-67
2021/12/07 03:44:24;;;;;;;;;;;19.50;59.90;;;23.65;35.02;93999.88;6071641;19;20249;-67
2021/12/07 03:46:26;;;;;;;;;;;19.50;59.90;;;23.65;34.74;94007.25;6079648;19;20464;-67
2021/12/07 03:48:28;;;;;;;;;;;19.50;59.90;;;23.65;34.76;94009.97;6057997;19;20370;-67
2021/12/07 03:50:29;;;;;;;;;;;19.50;59.90;;;23.65;34.94;94007.25;6058205;19;19914;-67
2021/12/07 03:52:29;;;;;;;;;;;19.50;59.90;;;23.65;34.96;94007.25;6073460;19;20634;-67
2021/12/07 03:54:30;;;;;;;;;;;19.50;59.90;;;23.65;34.85;94009.97;6064260;19;19962;-66
2021/12/07 03:56:32;;;;;;;;;;;19.50;60.00;;;23.65;35.15;94010.78;6054811;19;19918;-67
2021/12/07 03:58:34;;;;;;;;;;;19.50;59.90;;;23.66;34.81;94019.72;6046903;19;19918;-67
2021/12/07 04:00:37;;;;;;;;;;;19.50;60.00;;;23.66;35.11;94014.28;6047851;19;19915;-67
2021/12/07 04:02:40;;;;;;;;;;;19.50;59.90;;;23.65;34.86;94010.78;6048502;19;20185;-67
2021/12/07 04:04:43;;;;;;;;;;;19.50;60.00;;;23.67;34.75;94015.84;6062768;19;19947;-66
2021/12/07 04:06:43;;;;;;;;;;;19.50;59.40;;;23.67;35.13;94015.84;6065504;19;20340;-67
2021/12/07 04:08:44;;;;;;;;;;;19.50;60.70;;;23.65;35.07;94018.16;6079253;19;20375;-67
2021/12/07 04:10:49;;;;;;;;;;;19.50;59.40;;;23.66;35.18;94012.34;6068055;19;20421;-66
2021/12/07 04:12:50;;;;;;;;;;;19.50;59.90;;;23.66;34.92;94011.56;6075179;19;19919;-67
2021/12/07 04:14:51;;;;;;;;;;;;;;;23.65;34.99;94013.50;6068691;19;19907;-67
2021/12/07 04:16:52;;;;;;;;;;;19.50;59.20;;;23.64;35.19;94011.13;6080350;19;20320;-67
2021/12/07 04:18:53;;;;;;;;;;;19.50;59.20;;;23.64;34.73;94016.56;6081587;19;20024;-67
2021/12/07 04:20:54;;;;;;;;;;;19.50;59.90;;;23.63;34.83;94012.28;6072608;19;19922;-67
2021/12/07 04:22:55;;;;;;;;;;;19.50;59.30;;;23.63;34.83;94012.28;6075681;19;20373;-67
2021/12/07 04:24:55;;;;;;;;;;;19.50;59.30;;;23.61;34.96;94009.88;6074369;19;19926;-67
2021/12/07 04:26:56;;;;;;;;;;;19.50;59.80;;;23.61;34.82;94015.34;6079052;19;19918;-67
2021/12/07 04:28:58;;;;;;;;;;;19.50;59.90;;;23.60;34.80;94012.97;6069242;19;19941;-66
2021/12/07 04:30:59;;;;;;;;;;;19.50;60.70;;;23.59;35.28;94005.94;6062158;19;19914;-67
2021/12/07 04:33:01;;;;;;;;;;;19.50;60.00;;;23.59;34.96;94016.84;6064685;19;19914;-67
2021/12/07 04:35:03;;;;;;;;;;;19.50;60.00;;;23.57;35.20;94009.03;6074498;19;19918;-67
2021/12/07 04:37:04;;;;;;;;;;;19.40;59.90;;;23.56;34.85;94007.47;6069322;19;27055;-66
2021/12/07 04:39:04;;;;;;;;;;;19.50;60.00;;;23.56;34.89;94018.34;6070423;19;20000;-67
2021/12/07 04:41:06;;;;;;;;;;;19.40;60.00;;;23.56;35.21;94015.63;6065876;19;19962;-66
2021/12/07 04:43:07;;;;;;;;;;;19.50;60.00;;;23.56;34.85;94018.34;6071392;19;20873;-67
2021/12/07 04:45:12;;;;;;;;;;;19.40;59.80;;;23.57;35.34;94013.69;6082400;19;20703;-66
2021/12/07 04:47:21;;;;;;;;;;;19.50;60.00;;;23.57;34.87;94024.56;6075955;19;19930;-67
2021/12/07 04:58:24;;;;;;;;;;;19.50;60.00;;;23.60;34.92;94026.56;6064919;19;19968;-67
2021/12/07 05:00:27;;;;;;;;;;;19.50;60.00;;;23.60;35.25;94030.06;6057803;19;19915;-67
2021/12/07 05:02:28;;;;;;;;;;;19.50;60.00;;;23.62;34.89;94024.31;6062811;19;20307;-67
2021/12/07 05:04:32;;;;;;;;;;;19.50;60.00;;;23.63;35.11;94023.16;6070549;19;19923;-67
2021/12/07 05:06:35;;;;;;;;;;;19.50;60.10;;;23.63;35.33;94023.94;6065674;19;19935;-67
2021/12/07 05:08:43;;;;;;;;;;;19.50;60.00;;;23.64;34.86;94022.00;6063749;19;19922;-68
2021/12/07 05:15:02;;;;;;;;;;;19.50;60.00;;;23.65;35.13;94020.88;6076152;19;19918;-67
2021/12/07 05:17:27;;;;;;;;;;;19.50;59.90;;;23.65;34.83;94024.38;6068389;19;19922;-68
2021/12/07 05:24:07;;;;;;;;;;;19.50;59.90;;;23.64;34.89;94025.53;6047969;19;20022;-66
2021/12/07 05:39:48;;;;;;;;;;;19.50;59.90;;;23.63;34.81;94066.69;6067569;19;19926;-68
2021/12/07 05:41:48;;;;;;;;;;;19.50;59.90;;;23.63;34.79;94069.41;6072364;19;19915;-68
2021/12/07 05:43:49;;;;;;;;;;;19.50;59.90;;;23.63;34.93;94075.66;6068626;19;19942;-69
2021/12/07 05:45:50;;;;;;;;;;;19.50;59.90;;;23.63;34.98;94067.47;6068752;19;19938;-68
2021/12/07 05:47:51;;;;;;;;;;;19.50;59.90;;;23.64;34.82;94073.72;6056032;19;19925;-69
2021/12/07 05:49:52;;;;;;;;;;;19.50;60.00;;;23.65;35.12;94070.63;6062809;19;19958;-69
2021/12/07 05:51:53;;;;;;;;;;;19.50;59.90;;;23.64;35.17;94066.34;6068756;19;21047;-69
2021/12/07 05:53:53;;;;;;;;;;;19.50;59.90;;;23.64;35.25;94074.50;6050557;19;19914;-69
2021/12/07 05:55:54;;;;;;;;;;;19.50;59.90;;;23.64;34.81;94066.34;6056757;19;19982;-69
2021/12/07 05:57:58;;;;;;;;;;;19.50;59.90;;;23.65;35.06;94076.06;6053782;19;20461;-68
2021/12/07 05:59:59;;;;;;;;;;;19.50;60.00;;;23.65;34.90;94078.00;6046572;19;20952;-69
2021/12/07 06:02:00;;;;;;;;;;;19.50;59.90;;;23.65;34.74;94070.63;6040727;19;19983;-69
2021/12/07 06:04:00;;;;;;;;;;;19.50;59.90;;;23.65;34.97;94076.06;6062863;19;19918;-70
2021/12/07 06:06:03;;;;;;;;;;;19.50;59.90;;;23.65;35.02;94075.28;6048516;19;20416;-69
2021/12/07 06:08:04;;;;;;;;;;;19.50;59.90;;;23.65;35.02;94078.00;6040450;19;19919;-69
2021/12/07 06:10:06;;;;;;;;;;;19.50;59.90;;;23.65;35.14;94086.16;6051477;19;19922;-69
2021/12/07 06:12:07;;;;;;;;;;;19.50;59.90;;;23.65;34.97;94089.69;6061062;19;20336;-69
2021/12/07 06:14:09;;;;;;;;;;;19.50;59.80;;;23.65;34.94;94080.72;6058356;19;19919;-69
2021/12/07 06:16:10;;;;;;;;;;;19.50;59.80;;;23.64;35.06;94085.38;6060829;19;20002;-69
2021/12/07 06:18:12;;;;;;;;;;;19.50;59.80;;;23.65;35.16;94083.44;6042400;19;20004;-70
2021/12/07 06:20:14;;;;;;;;;;;19.50;59.80;;;23.66;35.04;94098.63;6052288;19;19915;-69
2021/12/07 06:22:14;;;;;;;;;;;19.50;59.70;;;23.65;34.79;94102.50;6073347;19;19919;-69
2021/12/07 06:24:15;;;;;;;;;;;19.50;59.70;;;23.65;35.10;94097.06;6054938;19;21139;-69
2021/12/07 06:26:16;;;;;;;;;;;19.50;59.90;;;23.64;34.59;94096.28;6037627;19;20005;-69
2021/12/07 06:28:17;;;;;;;;;;;19.50;59.80;;;23.64;34.82;94099.00;6057738;19;19929;-69
2021/12/07 06:30:18;;;;;;;;;;;19.50;59.70;;;23.64;35.17;94107.16;6063140;19;21126;-69
2021/12/07 06:32:19;;;;;;;;;;;19.50;59.70;;;23.65;34.91;94106.00;6071059;19;19926;-69
2021/12/07 06:34:20;;;;;;;;;;;19.50;60.50;;;23.66;35.17;94106.78;6080178;19;19919;-69
2021/12/07 06:36:21;;;;;;;;;;;19.50;59.80;;;23.66;34.95;94109.50;6071074;19;19919;-69
2021/12/07 06:38:22;;;;;;;;;;;19.50;59.90;;;23.67;34.84;94111.88;6057007;19;20458;-69
2021/12/07 06:40:23;;;;;;;;;;;19.50;59.90;;;23.68;34.94;94118.09;6038570;19;19911;-69
2021/12/07 06:42:24;;;;;;;;;;;19.50;60.00;;;23.69;34.71;94116.97;6047774;19;20752;-69
2021/12/07 06:44:24;;;;;;;;;;;19.50;60.70;;;23.69;34.81;94108.81;6035054;19;19960;-69
2021/12/07 06:46:25;;;;;;;;;;;19.50;60.10;;;23.70;35.13;94122.03;6050408;19;19943;-69
2021/12/07 06:48:29;;;;;;;;;;;19.50;60.10;;;23.69;34.86;94120.47;6043352;19;19998;-69
2021/12/07 06:50:30;;;;;;;;;;;19.50;60.10;;;23.69;34.98;94112.31;6053191;19;20409;-69
2021/12/07 06:52:30;;;;;;;;;;;19.50;60.00;;;23.69;35.13;94123.19;6053532;19;20192;-69
2021/12/07 06:54:31;;;;;;;;;;;19.50;59.90;;;23.70;35.11;94123.97;6030980;19;19914;-70
2021/12/07 06:56:32;;;;;;;;;;;19.50;60.00;;;23.70;34.76;94130.22;6027376;19;21134;-69
2021/12/07 06:58:33;;;;;;;;;;;19.50;59.90;;;23.69;34.88;94128.63;6040692;19;19934;-70
2021/12/07 07:00:35;;;;;;;;;;;19.50;59.80;;;23.70;35.13;94130.22;6042019;19;19914;-70
2021/12/07 07:02:35;;;;;;;;;;;19.50;59.80;;;23.70;35.13;94140.31;6048527;19;20664;-69
2021/12/07 07:04:36;;;;;;;;;;;19.50;59.80;;;23.70;34.66;94132.16;6043002;19;19914;-68
2021/12/07 07:06:37;;;;;;;;;;;19.50;59.70;;;23.69;34.74;94131.34;6062360;19;19939;-68
2021/12/07 07:08:38;;;;;;;;;;;19.50;59.60;;;23.70;34.85;94143.03;6034426;19;19952;-68
2021/12/07 07:10:38;;;;;;;;;;;19.50;59.60;;;23.70;34.63;94145.75;6054850;19;19930;-68
2021/12/07 07:12:39;;;;;;;;;;;19.50;59.50;;;23.68;35.03;94150.75;6066862;19;21170;-69
2021/12/07 07:14:40;;;;;;;;;;;19.50;59.50;;;23.68;34.98;94151.56;6069791;19;20015;-69
2021/12/07 07:16:41;;;;;;;;;;;19.50;59.50;;;23.68;35.13;94148.03;6070909;19;20330;-69
2021/12/07 07:18:42;;;;;;;;;;;19.50;59.50;;;23.68;34.59;94165.16;6056098;19;19911;-68
2021/12/07 07:20:42;;;;;;;;;;;19.60;59.60;;;23.69;34.57;94165.94;6056039;19;19918;-69
2021/12/07 07:22:44;;;;;;;;;;;19.50;59.30;;;23.67;34.73;94160.84;6061855;19;19922;-69
2021/12/07 07:24:45;;;;;;;;;;;19.50;59.30;;;23.69;34.59;94174.91;6050584;19;19926;-69
2021/12/07 07:26:46;;;;;;;;;;;19.50;59.30;;;23.68;34.60;94167.09;6043818;19;19921;-69
2021/12/07 07:28:46;;;;;;;;;;;19.50;59.30;;;23.69;34.97;94165.94;6066881;19;20028;-69
2021/12/07 07:30:47;;;;;;;;;;;19.50;59.20;;;23.68;34.81;94173.31;6021240;19;20259;-69
2021/12/07 07:32:48;;;;;;;;;;;19.50;59.20;;;23.68;34.65;94167.09;6066619;19;20305;-69
2021/12/07 07:34:49;;;;;;;;;;;19.50;59.30;;;23.66;34.58;94164.72;6070969;19;19927;-69
2021/12/07 07:36:49;;;;;;;;;;;19.50;59.20;;;23.66;34.54;94161.22;6074881;19;19915;-69
2021/12/07 07:38:50;;;;;;;;;;;19.50;59.20;;;23.64;34.53;94177.91;6068527;19;19926;-69
2021/12/07 07:40:52;;;;;;;;;;;19.50;59.20;;;23.64;34.55;94179.84;6076090;19;19910;-69
2021/12/07 07:42:57;;;;;;;;;;;19.50;59.20;;;23.62;34.43;94185.63;6071940;19;19919;-69
2021/12/07 07:45:13;;;;;;;;;;;19.50;59.20;;;23.62;34.52;94190.28;6076470;19;19923;-69
2021/12/07 07:47:15;;;;;;;;;;;19.50;59.20;;;23.61;34.86;94188.69;6077087;19;19972;-69
2021/12/07 07:49:15;;;;;;;;;;;19.50;59.20;;;23.61;34.87;94194.13;6071919;19;20332;-69
2021/12/07 07:51:16;;;;;;;;;;;19.50;59.20;;;23.60;34.72;94197.97;6062158;19;19919;-69
2021/12/07 07:53:17;;;;;;;;;;;19.50;59.20;;;23.60;34.97;94206.16;6075333;19;19915;-69
2021/12/07 07:55:18;;;;;;;;;;;19.50;59.20;;;23.60;34.72;94201.50;6071406;19;19953;-69
2021/12/07 07:57:19;;;;;;;;;;;19.50;59.20;;;23.61;34.86;94205.78;6064945;19;19950;-69
2021/12/07 07:59:20;;;;;;;;;;;19.50;59.20;;;23.60;34.63;94208.88;6073206;19;19990;-69
2021/12/07 08:01:23;;;;;;;;;;;19.50;59.20;;;23.61;34.83;94211.22;6064679;19;19948;-69
2021/12/07 08:03:24;;;;;;;;;;;19.50;59.20;;;23.60;34.95;94206.16;6075286;19;19990;-69
2021/12/07 08:05:25;;;;;;;;;;;19.50;59.80;;;23.61;34.45;94207.72;6076908;19;19919;-69
2021/12/07 08:07:26;;;;;;;;;;;19.50;59.20;;;23.61;34.85;94219.41;6074807;19;19923;-69
2021/12/07 08:09:27;;;;;;;;;;;19.50;59.20;;;23.62;34.60;94217.50;6072631;19;19906;-69
2021/12/07 08:11:28;;;;;;;;;;;19.50;59.20;;;23.62;34.63;94222.94;6080107;19;19930;-70
2021/12/07 08:13:30;;;;;;;;;;;19.50;59.20;;;23.63;34.55;94227.22;6074154;19;19951;-69
2021/12/07 08:15:37;;;;;;;;;;;19.50;59.20;;;23.64;34.49;94223.38;6073914;19;21245;-69
2021/12/07 08:17:38;;;;;;;;;;;19.50;59.20;;;23.65;34.70;94222.22;6074101;19;19914;-69
2021/12/07 08:19:38;;;;;;;;;;;19.50;59.20;;;23.66;34.83;94226.53;6074325;19;19929;-69
2021/12/07 08:21:39;;;;;;;;;;;19.50;59.10;;;23.66;34.71;94221.09;6072924;19;19918;-69
2021/12/07 08:23:40;;;;;;;;;;;19.50;59.20;;;23.67;34.62;94222.66;6072036;19;19930;-69
2021/12/07 08:25:43;;;;;;;;;;;19.50;59.20;;;23.68;34.62;94230.47;6070654;19;19940;-69
2021/12/07 08:27:44;;;;;;;;;;;19.50;59.10;;;23.69;34.75;94232.03;6068038;19;20958;-68
2021/12/07 08:29:44;;;;;;;;;;;19.50;59.10;;;23.70;34.71;94235.56;6075567;19;19923;-69
2021/12/07 08:31:45;;;;;;;;;;;19.50;59.10;;;23.69;34.90;94226.59;6073256;19;19967;-69
2021/12/07 08:33:46;;;;;;;;;;;19.50;59.20;;;23.71;34.48;94227.03;6070283;19;19978;-69
2021/12/07 08:35:47;;;;;;;;;;;19.50;59.10;;;23.72;34.70;94233.25;6071439;19;19915;-69
2021/12/07 08:37:48;;;;;;;;;;;19.50;59.20;;;23.72;34.76;94228.63;6076000;19;19919;-69
2021/12/07 08:39:49;;;;;;;;;;;19.60;59.10;;;23.73;34.66;94232.91;6067558;19;19918;-69
2021/12/07 08:41:53;;;;;;;;;;;19.50;59.00;;;23.73;34.40;94238.34;6072397;19;20565;-69
2021/12/07 08:43:54;;;;;;;;;;;19.60;59.10;;;23.73;34.42;94235.63;6071279;19;19911;-69
2021/12/07 08:45:56;;;;;;;;;;;19.60;59.10;;;23.74;34.55;94247.31;6076877;19;20514;-69
2021/12/07 08:47:58;;;;;;;;;;;19.50;59.10;;;23.74;34.29;94241.88;6072430;19;19922;-69
2021/12/07 08:49:59;;;;;;;;;;;19.60;59.10;;;23.75;34.33;94238.00;6072576;19;19949;-69
2021/12/07 08:52:00;;;;;;;;;;;19.60;59.00;;;23.75;34.55;94235.28;6070990;19;19923;-69
2021/12/07 08:54:23;;;;;;;;;;;19.60;59.10;;;23.74;34.36;94234.50;6075527;19;19990;-69
2021/12/07 09:01:04;;;;;;;;;;;19.60;59.00;;;23.74;34.63;94239.94;6071917;19;19941;-69
2021/12/07 09:03:05;;;;;;;;;;;19.60;59.00;;;23.74;34.40;94236.41;6077444;19;19931;-69
2021/12/07 09:05:06;;;;;;;;;;;19.60;59.00;;;23.74;34.33;94234.50;6078722;19;19942;-69
2021/12/07 09:07:07;;;;;;;;;;;19.60;58.90;;;23.75;34.46;94244.22;6076875;19;19937;-69
2021/12/07 09:09:07;;;;;;;;;;;19.60;59.00;;;23.75;34.17;94248.88;6070568;19;20334;-69
2021/12/07 09:11:10;;;;;;;;;;;19.60;58.90;;;23.75;34.34;94243.44;6069212;19;19982;-69
2021/12/07 09:13:11;;;;;;;;;;;19.60;58.90;;;23.75;34.58;94246.16;6075344;19;19911;-69
2021/12/07 09:15:12;;;;;;;;;;;19.60;58.90;;;23.75;34.61;94238.78;6078660;19;19947;-69
2021/12/07 09:17:14;;;;;;;;;;;19.60;58.90;;;23.75;34.50;94246.94;6081652;19;19934;-69
2021/12/07 09:19:15;;;;;;;;;;;19.60;58.90;;;23.76;34.55;94239.56;6076535;19;19915;-70
2021/12/07 09:21:17;;;;;;;;;;;19.60;58.90;;;23.77;34.37;94243.88;6075568;19;19945;-69
2021/12/07 09:23:18;;;;;;;;;;;19.60;58.90;;;23.77;34.42;94237.66;6069517;19;20573;-69
2021/12/07 09:25:18;;;;;;;;;;;19.60;58.90;;;23.77;34.21;94243.09;6079138;19;19928;-69
2021/12/07 09:27:19;;;;;;;;;;;19.60;58.90;;;23.77;34.43;94246.59;6072884;19;19948;-69
2021/12/07 09:29:20;;;;;;;;;;;19.60;58.90;;;23.77;34.62;94243.88;6082459;19;19914;-69
2021/12/07 09:31:22;;;;;;;;;;;19.60;58.90;;;23.78;34.15;94250.91;6077080;19;19919;-69
2021/12/07 09:33:26;;;;;;;;;;;19.60;58.90;;;23.78;34.69;94250.91;6076465;19;19982;-69
2021/12/07 09:35:27;;;;;;;;;;;19.60;58.90;;;23.79;34.72;94247.03;6086170;19;20484;-69
2021/12/07 09:37:28;;;;;;;;;;;19.60;58.90;;;23.79;34.50;94249.75;6081800;19;20388;-69
2021/12/07 09:39:29;;;;;;;;;;;19.60;58.90;;;23.79;34.19;94247.03;6076986;19;19922;-69
2021/12/07 09:41:29;;;;;;;;;;;19.60;58.90;;;23.79;34.21;94244.31;6085286;19;19910;-69
2021/12/07 09:43:30;;;;;;;;;;;19.60;58.90;;;23.80;34.50;94245.09;6076979;19;19983;-69
2021/12/07 09:45:31;;;;;;;;;;;19.60;58.80;;;23.81;34.24;94249.41;6080290;19;19922;-69
2021/12/07 09:47:32;;;;;;;;;;;19.60;58.80;;;23.82;34.44;94240.88;6087217;19;19915;-69
2021/12/07 09:49:33;;;;;;;;;;;19.60;58.90;;;23.82;34.46;94243.59;6078281;19;19943;-69
2021/12/07 09:51:35;;;;;;;;;;;19.60;58.80;;;23.83;34.52;94244.38;6073680;19;19994;-69
2021/12/07 09:53:36;;;;;;;;;;;19.60;58.80;;;23.82;34.52;94243.59;6079187;19;20336;-69
2021/12/07 09:55:37;;;;;;;;;;;19.60;58.80;;;23.82;34.51;94249.03;6082034;19;19919;-69
2021/12/07 09:57:38;;;;;;;;;;;19.60;58.80;;;23.84;34.13;94252.19;6080714;19;19957;-69
2021/12/07 09:59:39;;;;;;;;;;;19.60;58.80;;;23.84;34.15;94248.69;6089110;19;19918;-69
2021/12/07 10:01:41;;;;;;;;;;;19.70;58.90;;;23.84;34.13;94244.03;6076865;19;19919;-69
2021/12/07 10:03:42;;;;;;;;;;;19.70;58.80;;;23.85;34.18;94247.53;6076835;19;19922;-69
2021/12/07 10:05:44;;;;;;;;;;;19.70;58.80;;;23.85;34.54;94242.09;6085901;19;20008;-69
2021/12/07 10:07:46;;;;;;;;;;;19.70;58.90;;;23.85;34.59;94242.88;6075154;19;19929;-69
2021/12/07 10:09:47;;;;;;;;;;;19.70;58.80;;;23.86;34.38;94249.13;6075995;19;19926;-69
2021/12/07 10:11:52;;;;;;;;;;;19.70;58.80;;;23.85;34.03;94248.34;6081952;19;19915;-69
2021/12/07 10:13:53;;;;;;;;;;;19.70;58.80;;;23.86;34.05;94246.41;6077471;19;20331;-69
2021/12/07 10:15:54;;;;;;;;;;;19.70;59.40;;;23.86;34.47;94252.63;6079277;19;19919;-69
2021/12/07 10:18:13;;;;;;;;;;;19.70;58.70;;;23.86;34.23;94249.91;6079754;19;20341;-69
2021/12/07 10:20:37;;;;;;;;;;;19.70;58.80;;;23.86;34.43;94257.28;6085498;19;19935;-68
2021/12/07 10:22:41;;;;;;;;;;;19.70;58.80;;;23.85;34.38;94247.53;6074212;19;19925;-68
2021/12/07 10:24:50;;;;;;;;;;;19.70;58.70;;;23.84;34.16;94248.69;6077670;19;19927;-68
2021/12/07 10:26:51;;;;;;;;;;;19.70;58.60;;;23.85;34.27;94248.34;6070898;19;20655;-69
2021/12/07 10:28:55;;;;;;;;;;;19.70;58.70;;;23.84;34.26;94245.97;6073842;19;19910;-68
2021/12/07 10:31:02;;;;;;;;;;;19.70;58.60;;;23.85;34.16;94242.88;6075035;19;20022;-69
2021/12/07 10:33:05;;;;;;;;;;;19.70;58.60;;;23.84;34.26;94243.25;6076921;19;19969;-71
2021/12/07 10:35:45;;;;;;;;;;;19.70;58.60;;;23.84;34.30;94246.75;6078756;19;20294;-69
2021/12/07 10:38:06;;;;;;;;;;;19.70;58.50;;;23.83;33.95;94247.09;6072648;19;19915;-69
2021/12/07 10:40:07;;;;;;;;;;;19.60;58.40;;;23.83;34.19;94247.91;6068080;19;19923;-68
2021/12/07 10:42:22;;;;;;;;;;;19.70;58.50;;;23.83;33.96;94244.38;6076436;19;19919;-68
2021/12/07 10:44:25;;;;;;;;;;;19.60;58.40;;;23.81;34.26;94247.47;6082012;19;19922;-69
2021/12/07 10:46:38;;;;;;;;;;;19.60;58.40;;;23.81;34.19;94249.41;6077509;19;19914;-69
2021/12/07 10:48:39;;;;;;;;;;;19.70;58.50;;;23.82;34.14;94254.50;6074659;19;19934;-68
2021/12/07 10:50:39;;;;;;;;;;;19.60;58.40;;;23.82;34.19;94245.53;6075480;19;21000;-68
2021/12/07 10:52:42;;;;;;;;;;;19.60;58.50;;;23.81;34.19;94252.91;6069482;19;20203;-68
2021/12/07 10:55:02;;;;;;;;;;;19.70;58.50;;;23.82;33.91;94243.59;6068823;19;19923;-68
2021/12/07 10:57:04;;;;;;;;;;;19.70;58.50;;;23.82;34.37;94257.22;6072963;19;19922;-68
2021/12/07 10:59:08;;;;;;;;;;;19.70;58.60;;;23.81;34.41;94247.47;6078372;19;20295;-68
2021/12/07 11:01:09;;;;;;;;;;;19.60;58.40;;;23.82;33.94;94249.03;6063977;19;19925;-68
2021/12/07 11:03:11;;;;;;;;;;;19.70;58.50;;;23.85;34.05;94250.25;6072153;19;20572;-68
2021/12/07 11:05:20;;;;;;;;;;;19.70;58.50;;;23.85;34.15;94258.44;6064641;19;19930;-68
2021/12/07 11:07:27;;;;;;;;;;;19.70;58.60;;;23.86;34.17;94254.56;6068593;19;20485;-68